Portada
METAR-TAF:

METAR-TAF

Aeroports :

Mount Isa, Austràlia

latitud: 20-40S, longitud: 139-28E, altitud: 342 m

Observació

L'informe es va fer fa 25 minuts, a les 22:30 UTC
Vent 10 kt del Est
Temperatura 25°C
Humitat 41%
Pressió 1019 hPa
Visibilitat 10 km o més

METAR: YBMA 182230Z AUTO 10010KT 9999 // NCD 25/11 Q1019 RF00.0/000.0

Hora: 08:55 (22:55 UTC)

Pronòstic

L'informe es va fer fa 6 hores i 53 minuts, a les 16:02 UTC
Pronòstic vàlid del 18 a les 18 UTC al 19 a les 06 UTC
Vent 12 kt del Est
Visibilitat 10 km o més
sense núvols per sota de 1500 mi sense presència de cumulonimbus.

TAF: YBMA 181602Z 1818/1906 10012KT CAVOK

Observacions i pronòstics meteorològics de més de 4000 aeroports (METAR i TAF).

Les estacions disponibles són els punts grocs i vermells al mapa.

Posi el ratolí al punt desitjat per veure el nom de l'estació.

Feu clic per veure les observacions i els pronòstics meteorològics.

Per canviar el mapa: feu clic els botons verds amb una creu de color negre per apropar; al botó verd amb un guió per allunyar la imatge; o en les fletxes verdes per a mapes adjacents.


METAR-TAF: